HTSO

Songea Airport

Songea, Tanzania
METAR HTSO 190200Z 00000KT 9999 SCT018 FEW020CB SCT070 19/17 Q1015
Observed Flight Rules
Jan-19 @ 02:00 UTC (2 hours ago) Visual Flight Rules
Wind Visibility Clouds
Calm 10,000+ meters
  • Scattered at 1,800' AGL
  • Few at 2,000' AGL
  • Scattered at 7,000' AGL
Temperatures Readings
Current 19°C / 66°F
Dewpoint 17°C / 63°F
Humidity 88%
Altimeter 29.97" Hg
Pressure 1015 hPa
Elevation 1067
METAR HTSO 190200Z 00000KT 9999 SCT018 FEW020CB SCT070 19/17 Q1015
Observed Flight Rules
Jan-19 @ 02:00 UTC
(2 hours ago)
VFR
Wind Visibility
Calm 10,000+ meters
Clouds
  • Scattered at 1,800' AGL
  • Few at 2,000' AGL
  • Scattered at 7,000' AGL
Temperature Dewpoint
19°C / 66°F 17°C / 63°F
Humidity Altimeter Pressure
88% 29.97" Hg 1015 hPa